Search for airport 
image banner adimage banner adimage banner ad
image banner ad

KSAN - San Diego Intl

Located in San Diego, United States

ICAO - SAN, IATA - SAN

Data provided by Airmate  

General information

Coordinates: N32°44'1" W117°11'23"
Elevation is 17 feet MSL.
Magnetic variation is 11° East
View others Airports in California

Operational data

Special qualification required
Current time UTC:
Current local time:
Weather
METAR: KSAN 210851Z 36003KT 10SM OVC013 19/14 A2994 RMK AO2 SLP138 T01890139 58004
TAF: KSAN 210851Z 2109/2212 VRB05KT P6SM BKN012 FM212000 29010KT P6SM SCT013 FM220200 30006KT P6SM BKN012
View NOTAMs / SUP AIP / TFR affecting this airport [VIEW]
Communications frequencies: [VIEW]

Runways:

RWY identifierQFULength (ft)Width (ft)SurfaceLDA (ft)
09106°9400200OTHER7280
27286°9400200OTHER7591

Airport contact information

Address: San Diego United States

Satellite view of KSAN